Anch, Alaska
Current Conditions -  °F | °C
As of 10:58 AM on Sunday 23 Nov 2014 (Local Time) from PAED Reporting Station
Broken Clouds Broken Clouds  
Wind Chill: 27°   Ceiling: 7000
Heat Index: 27°   Visibility: 10mi
Dew Point: 24°   Wind: 3mph
Humidity: 89%   Direction: 80°E
Pressure: 29.43"   Gusts: NA
Location:  61.2265°N, 149.62°W
Report Text: PAED 231958Z AUTO 08003KT 10SM BKN070 M03/M05 A2943 RMK AO2 SLP964 T10301046 $
Loading
Personal Weather Stations






























Interactive Weather Map New forecast layout! Learn more

10-Day Weather Forecast

Advertisements
Track Severe Weather on mobile